createdAt,value
2022-12-31T00:01:07.319Z,94848.03
2022-12-31T00:03:40.198Z,94840.97
2022-12-31T00:06:33.475Z,94850.38
2022-12-31T00:09:03.515Z,94852.63
2022-12-31T00:11:30.375Z,94863.34
2022-12-31T00:13:57.574Z,94852.78
2022-12-31T00:16:30.295Z,94852.13
2022-12-31T00:18:58.487Z,94841.75
2022-12-31T00:21:30.581Z,94834.25
2022-12-31T00:23:57.302Z,94844.97
2022-12-31T00:26:28.810Z,94840.78
2022-12-31T00:29:01.376Z,94839.56
2022-12-31T00:31:37.405Z,94835.47
2022-12-31T00:34:05.650Z,94853.09
2022-12-31T00:36:37.102Z,94844.47
2022-12-31T00:39:10.154Z,94839.28
2022-12-31T00:41:37.660Z,94831.56
2022-12-31T00:44:05.762Z,94833.84
2022-12-31T00:46:32.707Z,94834.25
2022-12-31T00:48:59.809Z,94836.09
2022-12-31T00:51:27.053Z,94835.91
2022-12-31T00:53:59.078Z,94834.63
2022-12-31T00:56:28.643Z,94833.13
2022-12-31T00:59:01.355Z,94834.13
2022-12-31T01:01:30.129Z,94827.19
2022-12-31T01:04:05.463Z,94832.03
2022-12-31T01:06:32.617Z,94827.97
2022-12-31T01:09:05.260Z,94844.22
2022-12-31T01:11:32.012Z,94845.84
2022-12-31T01:14:04.679Z,94841.53
2022-12-31T01:16:40.269Z,94839.69
2022-12-31T01:19:09.221Z,94832.97
2022-12-31T01:21:39.564Z,94833.47
2022-12-31T01:24:07.884Z,94837.94
2022-12-31T01:26:35.652Z,94839.09
2022-12-31T01:29:02.979Z,94839.03
2022-12-31T01:31:30.107Z,94849.09
2022-12-31T01:34:03.482Z,94849.75
2022-12-31T01:36:55.919Z,94834.09
2022-12-31T01:39:22.955Z,94842.16
2022-12-31T01:41:56.293Z,94842.78
2022-12-31T01:44:33.061Z,94842.94
2022-12-31T01:47:02.171Z,94847.13
2022-12-31T01:49:57.928Z,94843.66
2022-12-31T01:52:30.262Z,94840.59
2022-12-31T01:55:12.579Z,94848.06
2022-12-31T01:57:40.728Z,94854.41
2022-12-31T02:00:09.055Z,94851.81
2022-12-31T02:02:41.391Z,94854.31
2022-12-31T02:05:38.653Z,94856.38
2022-12-31T02:08:05.638Z,94868.66
2022-12-31T02:10:32.658Z,94872.44
2022-12-31T02:13:01.649Z,94867.31
2022-12-31T02:15:43.456Z,94862.91
2022-12-31T02:18:47.379Z,94856.66
2022-12-31T02:21:29.660Z,94854.16
2022-12-31T02:24:03.593Z,94851.84
2022-12-31T02:26:54.636Z,94841.06
2022-12-31T02:29:34.078Z,94853.22
2022-12-31T02:32:08.809Z,94847.94
2022-12-31T02:35:09.339Z,94861.72
2022-12-31T02:37:36.138Z,94874.06
2022-12-31T02:40:04.593Z,94873.78
2022-12-31T02:42:31.602Z,94865.13
2022-12-31T02:44:58.684Z,94873.97
2022-12-31T02:47:53.656Z,94867.16
2022-12-31T02:50:36.711Z,94867.97
2022-12-31T02:54:04.869Z,94864.19
2022-12-31T02:56:51.384Z,94860.09
2022-12-31T02:59:49.933Z,94864.00
2022-12-31T03:02:23.024Z,94862.00
2022-12-31T03:04:56.064Z,94861.50
2022-12-31T03:07:25.340Z,94851.25
2022-12-31T03:09:54.261Z,94855.72
2022-12-31T03:12:22.585Z,94850.31
2022-12-31T03:14:49.657Z,94860.88
2022-12-31T03:17:17.393Z,94866.28
2022-12-31T03:19:44.442Z,94855.38
2022-12-31T03:22:15.567Z,94850.31
2022-12-31T03:24:48.476Z,94857.81
2022-12-31T03:27:16.555Z,94853.91
2022-12-31T03:29:43.503Z,94849.28
2022-12-31T03:32:12.980Z,94845.84
2022-12-31T03:34:42.684Z,94857.72
2022-12-31T03:37:15.637Z,94851.25
2022-12-31T03:39:42.782Z,94851.34
2022-12-31T03:42:15.680Z,94849.00
2022-12-31T03:44:45.294Z,94849.31
2022-12-31T03:47:15.033Z,94848.16
2022-12-31T03:49:47.053Z,94846.91
2022-12-31T03:52:14.059Z,94849.22
2022-12-31T03:54:41.113Z,94850.22
2022-12-31T03:57:08.174Z,94853.94
2022-12-31T03:59:35.461Z,94850.28
2022-12-31T04:02:02.807Z,94850.31
2022-12-31T04:04:29.955Z,94860.97
2022-12-31T04:06:57.092Z,94855.34
2022-12-31T04:09:24.196Z,94854.00
2022-12-31T04:11:53.781Z,94860.66
2022-12-31T04:14:26.497Z,94868.53
2022-12-31T04:16:53.522Z,94862.53
2022-12-31T04:19:20.563Z,94855.25
2022-12-31T04:21:47.474Z,94855.00
2022-12-31T04:24:14.436Z,94847.88
2022-12-31T04:26:41.546Z,94853.63
2022-12-31T04:29:14.263Z,94843.56
2022-12-31T04:31:45.993Z,94850.88
2022-12-31T04:34:13.210Z,94856.41
2022-12-31T04:37:04.520Z,94851.81
2022-12-31T04:39:36.323Z,94853.81
2022-12-31T04:42:03.490Z,94858.88
2022-12-31T04:44:30.510Z,94856.84
2022-12-31T04:46:58.049Z,94851.59
2022-12-31T04:49:25.073Z,94857.72
2022-12-31T04:51:52.270Z,94856.66
2022-12-31T04:54:20.753Z,94862.25
2022-12-31T04:56:47.741Z,94869.03
2022-12-31T04:59:15.152Z,94859.53
2022-12-31T05:01:42.226Z,94853.16
2022-12-31T05:04:09.316Z,94849.94
2022-12-31T05:06:41.137Z,94853.69
2022-12-31T05:09:08.162Z,94851.25
2022-12-31T05:11:35.321Z,94864.38
2022-12-31T05:14:04.864Z,94864.31
2022-12-31T05:16:32.273Z,94865.41
2022-12-31T05:19:03.164Z,94857.28
2022-12-31T05:21:30.754Z,94857.16
2022-12-31T05:23:57.780Z,94865.13
2022-12-31T05:26:24.787Z,94856.47
2022-12-31T05:28:51.789Z,94863.91
2022-12-31T05:31:24.600Z,94856.72
2022-12-31T05:33:51.494Z,94861.03
2022-12-31T05:36:24.177Z,94859.03
2022-12-31T05:38:53.703Z,94854.81
2022-12-31T05:41:23.501Z,94856.06
2022-12-31T05:43:50.725Z,94859.56
2022-12-31T05:46:23.476Z,94869.75
2022-12-31T05:48:52.061Z,94864.34
2022-12-31T05:51:19.110Z,94858.53
2022-12-31T05:53:51.402Z,94868.06
2022-12-31T05:56:23.398Z,94870.50
2022-12-31T05:58:50.410Z,94876.28
2022-12-31T06:01:23.093Z,94865.63
2022-12-31T06:03:52.730Z,94876.00
2022-12-31T06:06:19.750Z,94886.38
2022-12-31T06:08:54.748Z,94867.16
2022-12-31T06:11:21.847Z,94881.97
2022-12-31T06:13:48.878Z,94891.13
2022-12-31T06:16:15.819Z,94888.75
2022-12-31T06:18:42.842Z,94883.94
2022-12-31T06:21:09.888Z,94880.28
2022-12-31T06:23:36.931Z,94880.66
2022-12-31T06:26:07.056Z,94879.75
2022-12-31T06:28:34.083Z,94882.16
2022-12-31T06:31:01.574Z,94877.41
2022-12-31T06:33:29.022Z,94871.97
2022-12-31T06:36:03.072Z,94882.00
2022-12-31T06:38:30.743Z,94878.75
2022-12-31T06:40:57.776Z,94878.44
2022-12-31T06:43:27.443Z,94896.50
2022-12-31T06:45:55.165Z,94896.28
2022-12-31T06:48:25.034Z,94897.44
2022-12-31T06:50:51.754Z,94895.41
2022-12-31T06:53:18.753Z,94894.06
2022-12-31T06:55:51.740Z,94896.63
2022-12-31T06:58:19.710Z,94903.47
2022-12-31T07:01:29.503Z,94896.72
2022-12-31T07:04:52.973Z,94904.31
2022-12-31T07:07:57.613Z,94902.06
2022-12-31T07:10:29.999Z,94892.00
2022-12-31T07:13:24.739Z,94902.34
2022-12-31T07:16:25.813Z,94897.59
2022-12-31T07:19:33.839Z,94894.16
2022-12-31T07:22:01.227Z,94892.72
2022-12-31T07:24:29.446Z,94902.69
2022-12-31T07:27:16.464Z,94899.88
2022-12-31T07:30:04.991Z,94894.88
2022-12-31T07:33:19.839Z,94904.41
2022-12-31T07:36:25.601Z,94905.47
2022-12-31T07:39:39.105Z,94916.84
2022-12-31T07:42:27.557Z,94916.78
2022-12-31T07:45:31.878Z,94917.88
2022-12-31T07:48:06.866Z,94922.78
2022-12-31T07:50:36.555Z,94931.88
2022-12-31T07:53:09.135Z,94920.25
2022-12-31T07:55:36.970Z,94917.50
2022-12-31T07:58:10.865Z,94918.00
2022-12-31T08:00:40.429Z,94913.47
2022-12-31T08:03:28.783Z,94918.03
2022-12-31T08:06:24.038Z,94917.47
2022-12-31T08:09:03.612Z,94909.66
2022-12-31T08:12:01.765Z,94911.81
2022-12-31T08:14:37.453Z,94910.56
2022-12-31T08:17:04.809Z,94909.63
2022-12-31T08:19:35.094Z,94912.19
2022-12-31T08:25:43.290Z,94919.41
2022-12-31T08:28:59.409Z,94908.22
2022-12-31T08:31:48.298Z,94910.69
2022-12-31T08:34:40.842Z,94915.88
2022-12-31T08:37:18.214Z,94923.22
2022-12-31T08:40:23.611Z,94931.25
2022-12-31T08:42:53.612Z,94934.53
2022-12-31T08:45:50.884Z,94930.72
2022-12-31T08:48:25.625Z,94937.34
2022-12-31T08:50:53.747Z,94934.66
2022-12-31T08:53:25.728Z,94931.75
2022-12-31T08:56:04.991Z,94934.63
2022-12-31T08:59:20.442Z,94930.91
2022-12-31T09:02:18.118Z,94928.25
2022-12-31T09:05:26.513Z,94932.50
2022-12-31T09:08:17.773Z,94925.66
2022-12-31T09:11:24.684Z,94926.94
2022-12-31T09:17:28.993Z,94917.59
2022-12-31T09:19:57.250Z,94927.97
2022-12-31T09:22:27.278Z,94923.31
2022-12-31T09:24:54.213Z,94923.31
2022-12-31T09:27:58.712Z,94925.75
2022-12-31T09:30:37.926Z,94929.19
2022-12-31T09:33:31.424Z,94927.59
2022-12-31T09:35:58.779Z,94918.84
2022-12-31T09:39:07.986Z,94927.03
2022-12-31T09:41:52.732Z,94919.94
2022-12-31T09:44:48.531Z,94924.75
2022-12-31T09:47:33.850Z,94914.56
2022-12-31T09:50:21.303Z,94919.72
2022-12-31T09:53:14.922Z,94909.78
2022-12-31T09:56:03.462Z,94907.47
2022-12-31T09:59:08.033Z,94900.34
2022-12-31T10:02:01.364Z,94897.88
2022-12-31T10:05:05.802Z,94898.00
2022-12-31T10:08:06.821Z,94891.16
2022-12-31T10:10:40.954Z,94889.16
2022-12-31T10:13:33.722Z,94892.94
2022-12-31T10:16:20.610Z,94888.53
2022-12-31T10:19:32.168Z,94878.22
2022-12-31T10:22:19.303Z,94873.41
2022-12-31T10:24:49.606Z,94863.94
2022-12-31T10:27:53.815Z,94869.13
2022-12-31T10:30:24.567Z,94865.25
2022-12-31T10:33:33.310Z,94858.66
2022-12-31T10:36:21.699Z,94847.22
2022-12-31T10:39:28.052Z,94860.84
2022-12-31T10:41:56.370Z,94856.41
2022-12-31T10:44:36.890Z,94860.16
2022-12-31T10:47:54.559Z,94843.81
2022-12-31T10:50:35.601Z,94855.09
2022-12-31T10:53:54.773Z,94851.56
2022-12-31T10:57:00.095Z,94846.31
2022-12-31T11:00:04.065Z,94840.69
2022-12-31T11:02:58.591Z,94846.34
2022-12-31T11:06:00.673Z,94847.06
2022-12-31T11:11:28.880Z,94832.59
2022-12-31T11:14:34.676Z,94829.81
2022-12-31T11:17:46.919Z,94819.97
2022-12-31T11:20:52.160Z,94815.59
2022-12-31T11:23:59.862Z,94816.81
2022-12-31T11:26:47.017Z,94815.75
2022-12-31T11:29:47.997Z,94814.69
2022-12-31T11:32:25.126Z,94817.50
2022-12-31T11:35:07.974Z,94801.34
2022-12-31T11:37:48.790Z,94801.50
2022-12-31T11:40:39.457Z,94798.41
2022-12-31T11:43:57.130Z,94780.50
2022-12-31T11:46:39.403Z,94782.47
2022-12-31T11:49:30.381Z,94776.34
2022-12-31T11:52:50.904Z,94771.28
2022-12-31T11:55:39.213Z,94760.56
2022-12-31T11:58:12.754Z,94770.00
2022-12-31T12:00:40.172Z,94759.66
2022-12-31T12:03:07.045Z,94763.50
2022-12-31T12:05:34.199Z,94752.81
2022-12-31T12:08:01.640Z,94744.94
2022-12-31T12:11:02.935Z,94748.47
2022-12-31T12:13:30.102Z,94746.59
2022-12-31T12:16:06.928Z,94748.06
2022-12-31T12:18:45.038Z,94741.66
2022-12-31T12:21:14.002Z,94737.50
2022-12-31T12:24:03.900Z,94731.69
2022-12-31T12:26:41.243Z,94729.53
2022-12-31T12:29:30.546Z,94735.13
2022-12-31T12:32:05.493Z,94739.22
2022-12-31T12:34:37.703Z,94732.53
2022-12-31T12:37:33.416Z,94735.72
2022-12-31T12:40:17.751Z,94738.91
2022-12-31T12:42:52.395Z,94731.28
2022-12-31T12:45:24.420Z,94732.69
2022-12-31T12:47:58.853Z,94736.19
2022-12-31T12:50:32.394Z,94728.88
2022-12-31T12:53:17.170Z,94727.25
2022-12-31T12:56:25.445Z,94731.25
2022-12-31T12:59:06.317Z,94736.41
2022-12-31T13:01:47.516Z,94737.41
2022-12-31T13:07:42.982Z,94721.78
2022-12-31T13:10:37.078Z,94728.69
2022-12-31T13:13:34.201Z,94733.06
2022-12-31T13:16:39.577Z,94726.75
2022-12-31T13:19:30.452Z,94725.94
2022-12-31T13:22:08.461Z,94738.28
2022-12-31T13:24:43.178Z,94737.50
2022-12-31T13:27:29.481Z,94732.88
2022-12-31T13:30:00.334Z,94737.13
2022-12-31T13:32:39.071Z,94741.56
2022-12-31T13:35:21.333Z,94741.34
2022-12-31T13:37:48.151Z,94740.78
2022-12-31T13:40:21.728Z,94745.75
2022-12-31T13:43:00.681Z,94746.44
2022-12-31T13:45:32.904Z,94752.81
2022-12-31T13:48:08.262Z,94746.94
2022-12-31T13:50:44.884Z,94749.47
2022-12-31T13:53:45.175Z,94745.25
2022-12-31T13:56:34.063Z,94752.06
2022-12-31T13:59:22.596Z,94754.66
2022-12-31T14:02:34.240Z,94759.66
2022-12-31T14:05:06.545Z,94773.75
2022-12-31T14:07:40.365Z,94771.41
2022-12-31T14:10:15.703Z,94762.44
2022-12-31T14:12:52.644Z,94757.72
2022-12-31T14:15:42.492Z,94759.31
2022-12-31T14:18:33.924Z,94765.66
2022-12-31T14:21:28.327Z,94756.34
2022-12-31T14:24:18.266Z,94771.19
2022-12-31T14:26:48.287Z,94759.34
2022-12-31T14:29:43.273Z,94762.88
2022-12-31T14:32:29.759Z,94773.44
2022-12-31T14:35:07.548Z,94766.97
2022-12-31T14:38:14.182Z,94771.06
2022-12-31T14:41:11.715Z,94777.97
2022-12-31T14:44:18.928Z,94779.09
2022-12-31T14:47:24.604Z,94783.19
2022-12-31T14:50:09.379Z,94787.97
2022-12-31T14:53:03.784Z,94784.03
2022-12-31T14:55:32.168Z,94782.00
2022-12-31T14:58:36.931Z,94780.91
2022-12-31T15:01:22.181Z,94795.31
2022-12-31T15:04:13.497Z,94791.69
2022-12-31T15:07:33.588Z,94794.28
2022-12-31T15:10:26.501Z,94799.59
2022-12-31T15:13:31.521Z,94797.94
2022-12-31T15:16:19.197Z,94807.41
2022-12-31T15:19:26.712Z,94810.31
2022-12-31T15:22:45.289Z,94811.00
2022-12-31T15:25:28.976Z,94806.44
2022-12-31T15:27:57.779Z,94799.28
2022-12-31T15:30:39.991Z,94803.72
2022-12-31T15:33:16.749Z,94795.06
2022-12-31T15:35:51.162Z,94795.38
2022-12-31T15:38:29.112Z,94799.56
2022-12-31T15:41:12.263Z,94806.03
2022-12-31T15:44:02.005Z,94806.50
2022-12-31T15:46:38.469Z,94806.28
2022-12-31T15:49:21.137Z,94812.28
2022-12-31T15:52:06.746Z,94815.00
2022-12-31T15:54:37.808Z,94809.28
2022-12-31T15:57:31.302Z,94812.38
2022-12-31T15:59:59.141Z,94821.19
2022-12-31T16:02:31.436Z,94827.59
2022-12-31T16:04:58.700Z,94827.03
2022-12-31T16:07:26.365Z,94823.63
2022-12-31T16:09:54.683Z,94831.31
2022-12-31T16:12:32.510Z,94835.91
2022-12-31T16:15:01.567Z,94831.19
2022-12-31T16:17:33.185Z,94837.22
2022-12-31T16:20:20.381Z,94825.50
2022-12-31T16:22:54.272Z,94834.63
2022-12-31T16:25:31.507Z,94838.63
2022-12-31T16:28:04.272Z,94848.25
2022-12-31T16:30:34.075Z,94846.63
2022-12-31T16:33:03.805Z,94846.09
2022-12-31T16:35:37.029Z,94855.84
2022-12-31T16:38:19.610Z,94852.72
2022-12-31T16:41:20.493Z,94848.97
2022-12-31T16:43:48.704Z,94856.59
2022-12-31T16:46:27.591Z,94855.00
2022-12-31T16:48:57.216Z,94861.28
2022-12-31T16:51:43.840Z,94864.91
2022-12-31T16:54:21.524Z,94850.88
2022-12-31T16:56:49.125Z,94862.06
2022-12-31T16:59:25.836Z,94854.97
2022-12-31T17:01:55.328Z,94863.41
2022-12-31T17:04:22.837Z,94860.47
2022-12-31T17:06:49.600Z,94863.75
2022-12-31T17:09:21.391Z,94869.88
2022-12-31T17:11:58.013Z,94860.91
2022-12-31T17:14:26.653Z,94865.00
2022-12-31T17:17:02.704Z,94859.19
2022-12-31T17:19:50.144Z,94864.41
2022-12-31T17:22:32.755Z,94869.44
2022-12-31T17:25:25.895Z,94862.13
2022-12-31T17:27:59.874Z,94873.97
2022-12-31T17:30:49.912Z,94866.19
2022-12-31T17:33:27.429Z,94874.91
2022-12-31T17:36:21.085Z,94879.06
2022-12-31T17:38:53.218Z,94883.94
2022-12-31T17:41:29.632Z,94883.47
2022-12-31T17:44:01.757Z,94874.75
2022-12-31T17:46:28.806Z,94873.22
2022-12-31T17:49:01.631Z,94873.81
2022-12-31T17:51:28.698Z,94873.97
2022-12-31T17:53:55.734Z,94871.31
2022-12-31T17:56:22.785Z,94867.13
2022-12-31T17:58:50.931Z,94864.78
2022-12-31T18:01:21.895Z,94863.69
2022-12-31T18:03:51.618Z,94853.06
2022-12-31T18:06:18.430Z,94867.59
2022-12-31T18:08:45.440Z,94859.34
2022-12-31T18:11:20.400Z,94862.59
2022-12-31T18:13:53.197Z,94864.44
2022-12-31T18:16:20.351Z,94867.25
2022-12-31T18:18:47.477Z,94860.88
2022-12-31T18:21:22.916Z,94863.25
2022-12-31T18:26:22.822Z,94867.84
2022-12-31T18:28:50.616Z,94868.31
2022-12-31T18:31:20.311Z,94858.97
2022-12-31T18:33:47.606Z,94864.28
2022-12-31T18:36:20.147Z,94868.66
2022-12-31T18:38:47.325Z,94877.16
2022-12-31T18:41:23.433Z,94872.47
2022-12-31T18:43:53.130Z,94865.94
2022-12-31T18:46:21.518Z,94869.91
2022-12-31T18:48:49.343Z,94874.41
2022-12-31T18:51:31.070Z,94875.66
2022-12-31T18:54:06.728Z,94867.25
2022-12-31T18:56:33.840Z,94880.97
2022-12-31T18:59:00.906Z,94869.47
2022-12-31T19:01:29.907Z,94865.84
2022-12-31T19:03:58.753Z,94875.84
2022-12-31T19:06:25.828Z,94885.66
2022-12-31T19:08:52.622Z,94889.03
2022-12-31T19:11:19.799Z,94882.66
2022-12-31T19:13:51.765Z,94884.72
2022-12-31T19:16:18.837Z,94884.72
2022-12-31T19:18:45.885Z,94880.97
2022-12-31T19:21:15.933Z,94880.66
2022-12-31T19:23:45.580Z,94879.38
2022-12-31T19:26:19.597Z,94889.00
2022-12-31T19:28:46.717Z,94879.53
2022-12-31T19:31:13.542Z,94880.94
2022-12-31T19:33:45.722Z,94877.53
2022-12-31T19:36:16.205Z,94882.00
2022-12-31T19:38:46.077Z,94884.38
2022-12-31T19:41:17.561Z,94877.22
2022-12-31T19:43:45.265Z,94883.59
2022-12-31T19:46:16.580Z,94891.53
2022-12-31T19:48:43.849Z,94885.59
2022-12-31T19:51:11.949Z,94891.22
2022-12-31T19:53:44.933Z,94892.03
2022-12-31T19:56:16.254Z,94896.72
2022-12-31T19:58:43.662Z,94892.19
2022-12-31T20:01:21.713Z,94896.09
2022-12-31T20:03:48.683Z,94891.59
2022-12-31T20:06:16.566Z,94904.50
2022-12-31T20:08:45.480Z,94904.19
2022-12-31T20:11:19.910Z,94905.25
2022-12-31T20:13:47.317Z,94904.09
2022-12-31T20:16:16.063Z,94908.06
2022-12-31T20:18:43.541Z,94909.13
2022-12-31T20:21:14.334Z,94920.66
2022-12-31T20:23:41.865Z,94922.28
2022-12-31T20:26:09.137Z,94923.69
2022-12-31T20:28:37.060Z,94933.75
2022-12-31T20:31:26.625Z,94937.94
2022-12-31T20:33:56.069Z,94932.34
2022-12-31T20:36:23.023Z,94938.75
2022-12-31T20:38:50.492Z,94939.22
2022-12-31T20:41:18.973Z,94929.56
2022-12-31T20:43:45.761Z,94933.31
2022-12-31T20:46:19.970Z,94937.84
2022-12-31T20:48:47.197Z,94936.91
2022-12-31T20:51:14.795Z,94943.44
2022-12-31T20:53:48.492Z,94939.22
2022-12-31T20:56:17.474Z,94937.16
2022-12-31T20:58:47.171Z,94935.38
2022-12-31T21:01:14.443Z,94938.25
2022-12-31T21:06:33.104Z,94934.19
2022-12-31T21:09:00.389Z,94945.75
2022-12-31T21:11:27.425Z,94950.72
2022-12-31T21:13:54.821Z,94948.03
2022-12-31T21:16:22.673Z,94935.34
2022-12-31T21:18:49.979Z,94942.66
2022-12-31T21:21:19.574Z,94934.81
2022-12-31T21:23:47.677Z,94935.97
2022-12-31T21:26:14.952Z,94943.53
2022-12-31T21:28:41.863Z,94946.66
2022-12-31T21:31:10.642Z,94950.41
2022-12-31T21:33:37.788Z,94956.97
2022-12-31T21:36:05.211Z,94950.25
2022-12-31T21:38:58.546Z,94955.72
2022-12-31T21:41:25.604Z,94943.28
2022-12-31T21:43:57.433Z,94950.25
2022-12-31T21:46:25.920Z,94962.56
2022-12-31T21:49:12.505Z,94956.56
2022-12-31T21:51:39.545Z,94968.84
2022-12-31T21:54:08.670Z,94973.03
2022-12-31T21:56:38.246Z,94963.97
2022-12-31T21:59:05.343Z,94964.13
2022-12-31T22:01:32.445Z,94974.88
2022-12-31T22:03:59.507Z,94978.75
2022-12-31T22:06:26.539Z,94990.63
2022-12-31T22:08:54.696Z,94980.97
2022-12-31T22:11:22.534Z,94990.78
2022-12-31T22:13:49.944Z,94993.13
2022-12-31T22:16:17.269Z,94985.19
2022-12-31T22:18:44.413Z,94989.88
2022-12-31T22:21:18.732Z,94994.06
2022-12-31T22:23:48.484Z,94994.84
2022-12-31T22:26:17.934Z,94999.69
2022-12-31T22:28:45.641Z,94999.06
2022-12-31T22:31:17.210Z,95000.31
2022-12-31T22:33:46.014Z,94993.28
2022-12-31T22:36:24.242Z,94996.25
2022-12-31T22:38:54.187Z,95002.78
2022-12-31T22:41:21.667Z,95005.75
2022-12-31T22:43:49.967Z,95001.25
2022-12-31T22:46:31.755Z,95004.97
2022-12-31T22:48:59.225Z,95002.78
2022-12-31T22:51:30.517Z,95007.94
2022-12-31T22:54:18.766Z,95013.88
2022-12-31T22:56:50.964Z,95014.94
2022-12-31T22:59:18.003Z,95019.31
2022-12-31T23:01:44.830Z,95017.47
2022-12-31T23:04:12.332Z,95017.28
2022-12-31T23:06:39.503Z,95007.16
2022-12-31T23:09:06.314Z,95012.47
2022-12-31T23:11:33.935Z,95012.75
2022-12-31T23:14:07.373Z,95024.13
2022-12-31T23:16:36.781Z,95019.31
2022-12-31T23:19:05.704Z,95019.63
2022-12-31T23:21:34.843Z,95013.09
2022-12-31T23:24:13.055Z,95016.19
2022-12-31T23:26:45.206Z,95009.81
2022-12-31T23:29:12.626Z,95006.06
2022-12-31T23:31:39.400Z,95009.97
2022-12-31T23:34:07.702Z,95012.78
2022-12-31T23:36:34.629Z,95021.81
2022-12-31T23:39:07.362Z,95019.19
2022-12-31T23:41:34.443Z,95021.19
2022-12-31T23:44:01.429Z,95016.22
2022-12-31T23:46:28.300Z,95019.34
2022-12-31T23:48:55.311Z,95015.59
2022-12-31T23:51:22.054Z,95003.25
2022-12-31T23:53:49.088Z,95001.56
2022-12-31T23:56:23.068Z,95010.91
2022-12-31T23:58:56.691Z,95018.06
